Cincinnati, Ohio
Traffic Map
Current Weather Conditions
Cincinnati, Ohio
Clear Haze
Clear
25°
Feels Like: 26°
Wind Chill: 25° Ceiling: Unl
Heat Index: 26° Visibility: 5mi
Dew Point: 22° Wind: 0mph
Humidity: 82% Direction: ° ()
Pressure: 30.15in Gusts: 0mph
Raw Report DataKLUK 021353Z 00000KT 5SM HZ CLR 25/22 A3015 RMK AO2 SLP203 T02500217
Traffic Incident Summary
Active as of:
Severity:
Category:
InformationThere was an issue retrieving the traffic information for this location. Please try a different location or try again shortly.
Advertisements
Track Severe Weather on mobile